sensor_id;sensor_type;location;lat;lon;timestamp;pressure;altitude;pressure_sealevel;temperature;humidity
77077;BME280;66003;52.286;104.306;2023-05-07T00:01:01;97177.03;;;12.01;36.37
77077;BME280;66003;52.286;104.306;2023-05-07T00:03:28;97206.50;;;12.42;36.21
77077;BME280;66003;52.286;104.306;2023-05-07T00:05:54;97171.13;;;12.04;36.54
77077;BME280;66003;52.286;104.306;2023-05-07T00:08:21;97164.44;;;12.12;35.94
77077;BME280;66003;52.286;104.306;2023-05-07T00:10:47;97196.88;;;12.36;36.07
77077;BME280;66003;52.286;104.306;2023-05-07T00:13:13;97196.03;;;12.55;35.91
77077;BME280;66003;52.286;104.306;2023-05-07T00:15:39;97179.94;;;12.65;35.72
77077;BME280;66003;52.286;104.306;2023-05-07T00:18:06;97159.25;;;12.76;35.68
77077;BME280;66003;52.286;104.306;2023-05-07T00:20:32;97212.78;;;13.27;34.99
77077;BME280;66003;52.286;104.306;2023-05-07T00:22:58;97174.97;;;13.13;34.97
77077;BME280;66003;52.286;104.306;2023-05-07T00:25:24;97215.34;;;13.57;35.05
77077;BME280;66003;52.286;104.306;2023-05-07T00:27:50;97199.00;;;13.93;34.45
77077;BME280;66003;52.286;104.306;2023-05-07T00:30:17;97176.91;;;14.40;33.57
77077;BME280;66003;52.286;104.306;2023-05-07T00:32:43;97210.28;;;14.97;32.57
77077;BME280;66003;52.286;104.306;2023-05-07T00:35:11;97187.84;;;15.49;32.23
77077;BME280;66003;52.286;104.306;2023-05-07T00:37:38;97215.25;;;16.82;30.29
77077;BME280;66003;52.286;104.306;2023-05-07T00:40:04;97124.84;;;18.29;28.10
77077;BME280;66003;52.286;104.306;2023-05-07T00:42:33;97203.91;;;20.32;26.16
77077;BME280;66003;52.286;104.306;2023-05-07T00:44:59;97188.91;;;22.46;23.52
77077;BME280;66003;52.286;104.306;2023-05-07T00:47:25;97229.06;;;25.51;20.66
77077;BME280;66003;52.286;104.306;2023-05-07T00:49:52;97218.84;;;28.10;18.00
77077;BME280;66003;52.286;104.306;2023-05-07T00:52:20;97211.47;;;30.02;16.42
77077;BME280;66003;52.286;104.306;2023-05-07T00:54:47;97205.97;;;30.89;15.91
77077;BME280;66003;52.286;104.306;2023-05-07T00:57:14;97226.44;;;29.54;16.51
77077;BME280;66003;52.286;104.306;2023-05-07T00:59:41;97202.25;;;27.76;17.95
77077;BME280;66003;52.286;104.306;2023-05-07T01:02:07;97211.69;;;27.29;18.94
77077;BME280;66003;52.286;104.306;2023-05-07T01:04:34;97228.13;;;28.58;17.92
77077;BME280;66003;52.286;104.306;2023-05-07T01:07:01;97182.47;;;30.37;15.70
77077;BME280;66003;52.286;104.306;2023-05-07T01:09:28;97219.81;;;32.35;15.23
77077;BME280;66003;52.286;104.306;2023-05-07T01:11:55;97190.06;;;33.81;13.58
77077;BME280;66003;52.286;104.306;2023-05-07T01:14:24;97195.25;;;35.15;13.14
77077;BME280;66003;52.286;104.306;2023-05-07T01:16:51;97219.22;;;36.06;12.20
77077;BME280;66003;52.286;104.306;2023-05-07T01:19:18;97211.31;;;37.03;11.44
77077;BME280;66003;52.286;104.306;2023-05-07T01:21:46;97229.53;;;38.09;10.94
77077;BME280;66003;52.286;104.306;2023-05-07T01:24:14;97195.47;;;38.59;10.57
77077;BME280;66003;52.286;104.306;2023-05-07T01:26:41;97222.28;;;39.23;10.53
77077;BME280;66003;52.286;104.306;2023-05-07T01:29:07;97191.50;;;39.36;10.41
77077;BME280;66003;52.286;104.306;2023-05-07T01:31:34;97197.59;;;39.94;9.65
77077;BME280;66003;52.286;104.306;2023-05-07T01:34:02;97217.09;;;40.32;9.54
77077;BME280;66003;52.286;104.306;2023-05-07T01:36:30;97197.47;;;40.32;9.26
77077;BME280;66003;52.286;104.306;2023-05-07T01:38:59;97220.31;;;40.96;9.10
77077;BME280;66003;52.286;104.306;2023-05-07T01:41:26;97212.28;;;41.07;9.16
77077;BME280;66003;52.286;104.306;2023-05-07T01:43:53;97193.50;;;41.17;8.99
77077;BME280;66003;52.286;104.306;2023-05-07T01:46:20;97203.75;;;41.42;9.22
77077;BME280;66003;52.286;104.306;2023-05-07T01:48:47;97200.88;;;41.82;9.11
77077;BME280;66003;52.286;104.306;2023-05-07T01:51:13;97180.03;;;42.01;8.60
77077;BME280;66003;52.286;104.306;2023-05-07T01:53:40;97199.69;;;42.10;8.74
77077;BME280;66003;52.286;104.306;2023-05-07T01:56:07;97176.25;;;42.32;8.81
77077;BME280;66003;52.286;104.306;2023-05-07T01:58:33;97207.78;;;42.81;8.38
77077;BME280;66003;52.286;104.306;2023-05-07T02:01:00;97190.34;;;43.10;7.88
77077;BME280;66003;52.286;104.306;2023-05-07T02:03:26;97173.44;;;43.19;7.86
77077;BME280;66003;52.286;104.306;2023-05-07T02:05:52;97205.72;;;43.42;8.42
77077;BME280;66003;52.286;104.306;2023-05-07T02:08:18;97200.16;;;43.24;7.80
77077;BME280;66003;52.286;104.306;2023-05-07T02:10:44;97203.81;;;43.06;7.83
77077;BME280;66003;52.286;104.306;2023-05-07T02:13:11;97181.78;;;43.05;8.42
77077;BME280;66003;52.286;104.306;2023-05-07T02:15:37;97185.41;;;43.38;8.01
77077;BME280;66003;52.286;104.306;2023-05-07T02:18:05;97202.34;;;44.10;7.79
77077;BME280;66003;52.286;104.306;2023-05-07T02:20:32;97197.03;;;44.12;7.91
77077;BME280;66003;52.286;104.306;2023-05-07T02:22:58;97181.00;;;44.33;7.59
77077;BME280;66003;52.286;104.306;2023-05-07T02:25:24;97192.84;;;44.46;7.46
77077;BME280;66003;52.286;104.306;2023-05-07T02:27:51;97172.31;;;44.07;7.64
77077;BME280;66003;52.286;104.306;2023-05-07T02:30:17;97197.94;;;44.33;8.00
77077;BME280;66003;52.286;104.306;2023-05-07T02:32:43;97176.13;;;43.94;8.05
77077;BME280;66003;52.286;104.306;2023-05-07T02:35:09;97199.72;;;43.49;8.21
77077;BME280;66003;52.286;104.306;2023-05-07T02:37:36;97178.88;;;42.63;8.48
77077;BME280;66003;52.286;104.306;2023-05-07T02:40:02;97190.47;;;42.28;8.91
77077;BME280;66003;52.286;104.306;2023-05-07T02:42:30;97180.97;;;41.98;8.74
77077;BME280;66003;52.286;104.306;2023-05-07T02:44:56;97184.56;;;41.50;9.45
77077;BME280;66003;52.286;104.306;2023-05-07T02:47:22;97178.31;;;41.45;9.46
77077;BME280;66003;52.286;104.306;2023-05-07T02:49:48;97195.53;;;41.17;9.71
77077;BME280;66003;52.286;104.306;2023-05-07T02:52:15;97195.88;;;39.37;10.72
77077;BME280;66003;52.286;104.306;2023-05-07T02:54:41;97166.69;;;36.67;11.71
77077;BME280;66003;52.286;104.306;2023-05-07T02:57:07;97158.16;;;34.37;13.60
77077;BME280;66003;52.286;104.306;2023-05-07T02:59:33;97197.53;;;32.77;14.82
77077;BME280;66003;52.286;104.306;2023-05-07T03:01:59;97148.34;;;30.84;16.04
77077;BME280;66003;52.286;104.306;2023-05-07T03:04:26;97183.59;;;30.18;17.18
77077;BME280;66003;52.286;104.306;2023-05-07T03:06:52;97186.50;;;29.33;18.14
77077;BME280;66003;52.286;104.306;2023-05-07T03:09:19;97193.63;;;28.97;18.51
77077;BME280;66003;52.286;104.306;2023-05-07T03:11:45;97188.41;;;28.22;19.01
77077;BME280;66003;52.286;104.306;2023-05-07T03:14:11;97182.81;;;27.88;19.61
77077;BME280;66003;52.286;104.306;2023-05-07T03:16:39;97196.81;;;27.30;20.64
77077;BME280;66003;52.286;104.306;2023-05-07T03:19:06;97171.38;;;26.69;21.24
77077;BME280;66003;52.286;104.306;2023-05-07T03:21:32;97178.91;;;26.52;21.43
77077;BME280;66003;52.286;104.306;2023-05-07T03:24:00;97162.19;;;26.22;21.35
77077;BME280;66003;52.286;104.306;2023-05-07T03:26:27;97137.81;;;25.79;21.46
77077;BME280;66003;52.286;104.306;2023-05-07T03:28:53;97186.41;;;26.01;21.93
77077;BME280;66003;52.286;104.306;2023-05-07T03:31:19;97181.06;;;25.89;22.15
77077;BME280;66003;52.286;104.306;2023-05-07T03:33:56;97197.81;;;26.03;21.97
77077;BME280;66003;52.286;104.306;2023-05-07T03:36:23;97181.81;;;25.70;22.25
77077;BME280;66003;52.286;104.306;2023-05-07T03:38:50;97178.03;;;25.43;22.33
77077;BME280;66003;52.286;104.306;2023-05-07T03:41:17;97195.78;;;25.34;22.16
77077;BME280;66003;52.286;104.306;2023-05-07T03:43:43;97179.53;;;24.94;22.89
77077;BME280;66003;52.286;104.306;2023-05-07T03:46:09;97189.19;;;24.91;22.89
77077;BME280;66003;52.286;104.306;2023-05-07T03:48:35;97170.31;;;24.86;22.92
77077;BME280;66003;52.286;104.306;2023-05-07T03:51:01;97188.44;;;25.06;23.07
77077;BME280;66003;52.286;104.306;2023-05-07T03:53:27;97167.72;;;25.05;22.94
77077;BME280;66003;52.286;104.306;2023-05-07T03:55:53;97156.75;;;24.90;23.23
77077;BME280;66003;52.286;104.306;2023-05-07T03:58:20;97167.38;;;25.23;22.70
77077;BME280;66003;52.286;104.306;2023-05-07T04:00:46;97176.19;;;25.32;23.13
77077;BME280;66003;52.286;104.306;2023-05-07T04:03:12;97171.06;;;25.30;22.58
77077;BME280;66003;52.286;104.306;2023-05-07T04:05:38;97142.13;;;25.13;22.72
77077;BME280;66003;52.286;104.306;2023-05-07T04:08:04;97162.16;;;25.17;22.95
77077;BME280;66003;52.286;104.306;2023-05-07T04:10:31;97133.63;;;25.03;23.40
77077;BME280;66003;52.286;104.306;2023-05-07T04:12:58;97142.50;;;25.12;22.67
77077;BME280;66003;52.286;104.306;2023-05-07T04:15:24;97148.47;;;25.17;22.53
77077;BME280;66003;52.286;104.306;2023-05-07T04:17:50;97171.06;;;25.30;22.64
77077;BME280;66003;52.286;104.306;2023-05-07T04:20:17;97151.41;;;25.25;22.77
77077;BME280;66003;52.286;104.306;2023-05-07T04:22:44;97134.97;;;25.25;22.94
77077;BME280;66003;52.286;104.306;2023-05-07T04:25:11;97152.59;;;25.43;23.13
77077;BME280;66003;52.286;104.306;2023-05-07T04:27:37;97088.66;;;25.00;22.61
77077;BME280;66003;52.286;104.306;2023-05-07T04:30:04;97156.78;;;25.37;22.47
77077;BME280;66003;52.286;104.306;2023-05-07T04:32:33;97125.25;;;25.27;22.71
77077;BME280;66003;52.286;104.306;2023-05-07T04:34:59;97116.44;;;25.18;22.98
77077;BME280;66003;52.286;104.306;2023-05-07T04:37:25;97109.47;;;25.21;22.71
77077;BME280;66003;52.286;104.306;2023-05-07T04:39:52;97121.00;;;25.30;22.65
77077;BME280;66003;52.286;104.306;2023-05-07T04:42:19;97137.22;;;25.54;22.78
77077;BME280;66003;52.286;104.306;2023-05-07T04:44:45;97118.91;;;25.23;22.68
77077;BME280;66003;52.286;104.306;2023-05-07T04:47:12;97110.88;;;25.30;22.64
77077;BME280;66003;52.286;104.306;2023-05-07T04:49:38;97097.06;;;25.42;22.27
77077;BME280;66003;52.286;104.306;2023-05-07T04:52:05;97074.78;;;25.25;22.74
77077;BME280;66003;52.286;104.306;2023-05-07T04:54:31;97117.81;;;25.43;22.87
77077;BME280;66003;52.286;104.306;2023-05-07T04:56:57;97113.00;;;25.37;22.61
77077;BME280;66003;52.286;104.306;2023-05-07T04:59:23;97110.16;;;25.33;22.60
77077;BME280;66003;52.286;104.306;2023-05-07T05:01:50;97113.63;;;25.49;23.01
77077;BME280;66003;52.286;104.306;2023-05-07T05:04:16;97120.19;;;25.45;22.67
77077;BME280;66003;52.286;104.306;2023-05-07T05:06:42;97097.53;;;25.29;22.74
77077;BME280;66003;52.286;104.306;2023-05-07T05:09:08;97096.81;;;25.32;22.69
77077;BME280;66003;52.286;104.306;2023-05-07T05:11:34;97090.00;;;25.41;22.78
77077;BME280;66003;52.286;104.306;2023-05-07T05:14:01;97098.00;;;25.66;22.95
77077;BME280;66003;52.286;104.306;2023-05-07T05:16:27;97091.56;;;25.93;22.53
77077;BME280;66003;52.286;104.306;2023-05-07T05:18:54;97098.25;;;26.15;22.34
77077;BME280;66003;52.286;104.306;2023-05-07T05:21:20;97071.13;;;26.10;22.23
77077;BME280;66003;52.286;104.306;2023-05-07T05:23:47;97091.97;;;26.34;22.14
77077;BME280;66003;52.286;104.306;2023-05-07T05:26:13;97085.28;;;26.31;22.24
77077;BME280;66003;52.286;104.306;2023-05-07T05:28:39;97077.56;;;26.59;21.82
77077;BME280;66003;52.286;104.306;2023-05-07T05:31:05;97062.16;;;26.51;22.05
77077;BME280;66003;52.286;104.306;2023-05-07T05:33:31;97072.34;;;26.74;21.67
77077;BME280;66003;52.286;104.306;2023-05-07T05:35:58;97064.28;;;26.61;22.98
77077;BME280;66003;52.286;104.306;2023-05-07T05:38:24;97087.13;;;26.46;22.12
77077;BME280;66003;52.286;104.306;2023-05-07T05:40:50;97075.63;;;26.18;22.31
77077;BME280;66003;52.286;104.306;2023-05-07T05:43:16;97058.38;;;25.98;22.53
77077;BME280;66003;52.286;104.306;2023-05-07T05:45:43;97051.84;;;25.83;22.39
77077;BME280;66003;52.286;104.306;2023-05-07T05:48:09;97067.63;;;25.71;22.68
77077;BME280;66003;52.286;104.306;2023-05-07T05:50:35;97062.94;;;25.55;23.07
77077;BME280;66003;52.286;104.306;2023-05-07T05:53:02;97067.19;;;25.69;23.18
77077;BME280;66003;52.286;104.306;2023-05-07T05:55:28;97032.28;;;25.66;22.71
77077;BME280;66003;52.286;104.306;2023-05-07T05:57:56;97008.66;;;25.58;22.82
77077;BME280;66003;52.286;104.306;2023-05-07T06:00:22;97040.31;;;25.94;22.59
77077;BME280;66003;52.286;104.306;2023-05-07T06:02:51;97038.06;;;25.80;22.75
77077;BME280;66003;52.286;104.306;2023-05-07T06:05:17;97048.72;;;25.66;23.61
77077;BME280;66003;52.286;104.306;2023-05-07T06:07:43;97026.56;;;25.55;23.02
77077;BME280;66003;52.286;104.306;2023-05-07T06:10:09;97049.88;;;25.49;23.00
77077;BME280;66003;52.286;104.306;2023-05-07T06:12:35;97042.53;;;25.69;23.07
77077;BME280;66003;52.286;104.306;2023-05-07T06:15:02;97012.09;;;25.54;23.04
77077;BME280;66003;52.286;104.306;2023-05-07T06:17:30;97024.06;;;25.46;22.76
77077;BME280;66003;52.286;104.306;2023-05-07T06:19:56;97007.75;;;25.34;22.64
77077;BME280;66003;52.286;104.306;2023-05-07T06:22:22;97013.03;;;25.43;22.45
77077;BME280;66003;52.286;104.306;2023-05-07T06:24:49;97005.66;;;25.28;23.09
77077;BME280;66003;52.286;104.306;2023-05-07T06:27:15;97010.28;;;25.43;23.30
77077;BME280;66003;52.286;104.306;2023-05-07T06:29:41;97031.97;;;25.51;23.43
77077;BME280;66003;52.286;104.306;2023-05-07T06:32:08;97031.59;;;25.53;23.26
77077;BME280;66003;52.286;104.306;2023-05-07T06:34:35;97000.22;;;25.47;23.09
77077;BME280;66003;52.286;104.306;2023-05-07T06:37:02;97009.34;;;25.35;23.32
77077;BME280;66003;52.286;104.306;2023-05-07T06:39:28;97011.06;;;25.24;23.83
77077;BME280;66003;52.286;104.306;2023-05-07T06:41:55;97016.22;;;25.29;23.89
77077;BME280;66003;52.286;104.306;2023-05-07T06:44:21;96998.09;;;25.21;23.63
77077;BME280;66003;52.286;104.306;2023-05-07T06:46:47;96989.91;;;25.05;23.51
77077;BME280;66003;52.286;104.306;2023-05-07T06:49:14;96982.38;;;25.18;23.78
77077;BME280;66003;52.286;104.306;2023-05-07T06:51:41;97009.22;;;25.47;23.68
77077;BME280;66003;52.286;104.306;2023-05-07T06:54:07;96997.84;;;25.45;23.34
77077;BME280;66003;52.286;104.306;2023-05-07T06:56:33;96991.59;;;25.29;23.55
77077;BME280;66003;52.286;104.306;2023-05-07T06:59:01;96998.22;;;25.28;23.60
77077;BME280;66003;52.286;104.306;2023-05-07T07:01:28;96984.22;;;25.14;23.49
77077;BME280;66003;52.286;104.306;2023-05-07T07:03:54;96969.13;;;25.20;23.54
77077;BME280;66003;52.286;104.306;2023-05-07T07:06:20;96978.59;;;25.42;23.29
77077;BME280;66003;52.286;104.306;2023-05-07T07:08:46;96987.84;;;25.18;23.39
77077;BME280;66003;52.286;104.306;2023-05-07T07:11:12;96972.59;;;25.17;23.15
77077;BME280;66003;52.286;104.306;2023-05-07T07:13:39;96986.03;;;24.91;23.51
77077;BME280;66003;52.286;104.306;2023-05-07T07:16:06;96983.22;;;24.87;23.75
77077;BME280;66003;52.286;104.306;2023-05-07T07:18:32;96982.44;;;24.87;23.90
77077;BME280;66003;52.286;104.306;2023-05-07T07:20:58;96953.31;;;24.78;23.91
77077;BME280;66003;52.286;104.306;2023-05-07T07:23:24;96963.06;;;24.60;24.44
77077;BME280;66003;52.286;104.306;2023-05-07T07:25:51;96960.75;;;24.78;24.16
77077;BME280;66003;52.286;104.306;2023-05-07T07:28:17;96964.16;;;24.91;24.03
77077;BME280;66003;52.286;104.306;2023-05-07T07:30:43;96963.78;;;25.08;24.04
77077;BME280;66003;52.286;104.306;2023-05-07T07:33:10;96935.84;;;24.99;23.91
77077;BME280;66003;52.286;104.306;2023-05-07T07:35:36;96958.84;;;25.13;23.54
77077;BME280;66003;52.286;104.306;2023-05-07T07:38:02;96964.31;;;25.13;23.65
77077;BME280;66003;52.286;104.306;2023-05-07T07:40:28;96948.63;;;25.10;23.51
77077;BME280;66003;52.286;104.306;2023-05-07T07:42:56;96917.16;;;25.01;23.09
77077;BME280;66003;52.286;104.306;2023-05-07T07:45:23;96942.91;;;25.00;23.27
77077;BME280;66003;52.286;104.306;2023-05-07T07:47:49;96943.28;;;24.98;23.58
77077;BME280;66003;52.286;104.306;2023-05-07T07:50:15;96949.69;;;24.90;23.63
77077;BME280;66003;52.286;104.306;2023-05-07T07:52:41;96932.53;;;24.74;23.48
77077;BME280;66003;52.286;104.306;2023-05-07T07:55:08;96926.72;;;24.75;23.21
77077;BME280;66003;52.286;104.306;2023-05-07T07:57:34;96919.47;;;24.67;23.32
77077;BME280;66003;52.286;104.306;2023-05-07T08:00:01;96928.44;;;24.48;23.72
77077;BME280;66003;52.286;104.306;2023-05-07T08:02:30;96932.81;;;24.69;23.77
77077;BME280;66003;52.286;104.306;2023-05-07T08:04:57;96892.03;;;24.44;23.87
77077;BME280;66003;52.286;104.306;2023-05-07T08:07:23;96924.25;;;24.70;23.78
77077;BME280;66003;52.286;104.306;2023-05-07T08:09:49;96889.19;;;24.57;23.68
77077;BME280;66003;52.286;104.306;2023-05-07T08:12:15;96907.97;;;24.58;23.70
77077;BME280;66003;52.286;104.306;2023-05-07T08:14:42;96921.03;;;24.49;23.81
77077;BME280;66003;52.286;104.306;2023-05-07T08:17:08;96917.69;;;24.40;24.15
77077;BME280;66003;52.286;104.306;2023-05-07T08:19:35;96903.50;;;24.34;24.26
77077;BME280;66003;52.286;104.306;2023-05-07T08:22:03;96906.66;;;24.52;23.98
77077;BME280;66003;52.286;104.306;2023-05-07T08:24:31;96838.19;;;24.13;23.53
77077;BME280;66003;52.286;104.306;2023-05-07T08:26:57;96877.09;;;24.58;23.55
77077;BME280;66003;52.286;104.306;2023-05-07T08:29:23;96917.28;;;25.08;22.95
77077;BME280;66003;52.286;104.306;2023-05-07T08:31:49;96896.91;;;24.70;23.33
77077;BME280;66003;52.286;104.306;2023-05-07T08:34:15;96919.97;;;25.24;22.80
77077;BME280;66003;52.286;104.306;2023-05-07T08:36:41;96864.66;;;24.60;23.31
77077;BME280;66003;52.286;104.306;2023-05-07T08:39:09;96915.22;;;24.86;23.67
77077;BME280;66003;52.286;104.306;2023-05-07T08:41:35;96913.75;;;25.27;22.61
77077;BME280;66003;52.286;104.306;2023-05-07T08:44:03;96902.03;;;24.72;23.44
77077;BME280;66003;52.286;104.306;2023-05-07T08:46:32;96876.97;;;24.35;23.80
77077;BME280;66003;52.286;104.306;2023-05-07T08:48:59;96899.75;;;24.58;23.44
77077;BME280;66003;52.286;104.306;2023-05-07T08:51:25;96874.13;;;24.47;23.57
77077;BME280;66003;52.286;104.306;2023-05-07T08:53:52;96878.53;;;24.52;23.85
77077;BME280;66003;52.286;104.306;2023-05-07T08:56:19;96871.84;;;24.49;23.29
77077;BME280;66003;52.286;104.306;2023-05-07T08:58:46;96895.63;;;24.48;23.30
77077;BME280;66003;52.286;104.306;2023-05-07T09:01:16;96869.81;;;24.46;23.25
77077;BME280;66003;52.286;104.306;2023-05-07T09:03:46;96886.19;;;24.46;23.43
77077;BME280;66003;52.286;104.306;2023-05-07T09:06:13;96895.38;;;24.54;23.42
77077;BME280;66003;52.286;104.306;2023-05-07T09:08:39;96894.94;;;24.52;23.63
77077;BME280;66003;52.286;104.306;2023-05-07T09:11:05;96889.91;;;24.54;23.59
77077;BME280;66003;52.286;104.306;2023-05-07T09:13:31;96853.25;;;24.39;23.37
77077;BME280;66003;52.286;104.306;2023-05-07T09:15:58;96869.09;;;24.49;23.40
77077;BME280;66003;52.286;104.306;2023-05-07T09:18:32;96895.69;;;24.68;23.30
77077;BME280;66003;52.286;104.306;2023-05-07T09:20:59;96890.25;;;24.52;23.52
77077;BME280;66003;52.286;104.306;2023-05-07T09:23:26;96850.53;;;24.39;23.33
77077;BME280;66003;52.286;104.306;2023-05-07T09:25:52;96895.97;;;24.98;22.77
77077;BME280;66003;52.286;104.306;2023-05-07T09:28:25;96862.84;;;24.48;23.04
77077;BME280;66003;52.286;104.306;2023-05-07T09:30:51;96898.03;;;24.50;23.13
77077;BME280;66003;52.286;104.306;2023-05-07T09:33:18;96874.66;;;24.21;23.54
77077;BME280;66003;52.286;104.306;2023-05-07T09:35:44;96870.72;;;24.19;23.70
77077;BME280;66003;52.286;104.306;2023-05-07T09:38:10;96874.25;;;24.03;24.15
77077;BME280;66003;52.286;104.306;2023-05-07T09:40:36;96897.47;;;23.97;24.29
77077;BME280;66003;52.286;104.306;2023-05-07T09:43:12;96863.13;;;23.96;23.91
77077;BME280;66003;52.286;104.306;2023-05-07T09:45:39;96890.28;;;24.05;23.92
77077;BME280;66003;52.286;104.306;2023-05-07T09:48:07;96878.00;;;23.99;24.03
77077;BME280;66003;52.286;104.306;2023-05-07T09:50:49;96886.22;;;24.15;23.92
77077;BME280;66003;52.286;104.306;2023-05-07T09:53:17;96883.41;;;23.95;24.02
77077;BME280;66003;52.286;104.306;2023-05-07T09:55:43;96864.63;;;23.78;24.24
77077;BME280;66003;52.286;104.306;2023-05-07T09:58:12;96890.09;;;23.98;24.14
77077;BME280;66003;52.286;104.306;2023-05-07T10:00:39;96877.41;;;23.90;24.12
77077;BME280;66003;52.286;104.306;2023-05-07T10:03:08;96878.81;;;23.84;24.37
77077;BME280;66003;52.286;104.306;2023-05-07T10:05:36;96844.88;;;23.53;24.57
77077;BME280;66003;52.286;104.306;2023-05-07T10:08:03;96881.97;;;23.70;24.54
77077;BME280;66003;52.286;104.306;2023-05-07T10:10:30;96855.09;;;23.56;24.58
77077;BME280;66003;52.286;104.306;2023-05-07T10:12:57;96890.41;;;23.65;24.62
77077;BME280;66003;52.286;104.306;2023-05-07T10:15:23;96851.06;;;23.38;24.44
77077;BME280;66003;52.286;104.306;2023-05-07T10:17:51;96889.00;;;23.55;24.68
77077;BME280;66003;52.286;104.306;2023-05-07T10:20:19;96879.81;;;23.48;24.68
77077;BME280;66003;52.286;104.306;2023-05-07T10:22:47;96869.69;;;23.48;24.65
77077;BME280;66003;52.286;104.306;2023-05-07T10:25:21;96872.09;;;23.65;24.81
77077;BME280;66003;52.286;104.306;2023-05-07T10:27:49;96848.44;;;23.41;24.84
77077;BME280;66003;52.286;104.306;2023-05-07T10:33:10;96881.88;;;23.66;24.52
77077;BME280;66003;52.286;104.306;2023-05-07T10:35:41;96885.22;;;23.60;24.25
77077;BME280;66003;52.286;104.306;2023-05-07T10:38:09;96849.28;;;23.30;24.63
77077;BME280;66003;52.286;104.306;2023-05-07T10:40:36;96880.19;;;23.34;24.63
77077;BME280;66003;52.286;104.306;2023-05-07T10:43:03;96875.09;;;23.32;24.54
77077;BME280;66003;52.286;104.306;2023-05-07T10:45:33;96878.31;;;23.22;24.51
77077;BME280;66003;52.286;104.306;2023-05-07T10:48:15;96865.47;;;23.23;24.61
77077;BME280;66003;52.286;104.306;2023-05-07T10:51:19;96862.78;;;23.38;24.31
77077;BME280;66003;52.286;104.306;2023-05-07T10:53:46;96868.00;;;23.16;24.13
77077;BME280;66003;52.286;104.306;2023-05-07T10:58:44;96808.72;;;22.73;24.74
77077;BME280;66003;52.286;104.306;2023-05-07T11:01:10;96842.50;;;22.96;24.78
77077;BME280;66003;52.286;104.306;2023-05-07T11:04:14;96870.94;;;23.23;24.42
77077;BME280;66003;52.286;104.306;2023-05-07T11:06:41;96848.19;;;22.91;24.69
77077;BME280;66003;52.286;104.306;2023-05-07T11:09:07;96860.28;;;22.78;24.65
77077;BME280;66003;52.286;104.306;2023-05-07T11:11:45;96874.44;;;23.23;24.65
77077;BME280;66003;52.286;104.306;2023-05-07T11:14:43;96869.16;;;23.02;24.70
77077;BME280;66003;52.286;104.306;2023-05-07T11:17:10;96860.38;;;22.69;24.89
77077;BME280;66003;52.286;104.306;2023-05-07T11:19:55;96842.25;;;22.61;24.73
77077;BME280;66003;52.286;104.306;2023-05-07T11:25:02;96867.00;;;22.44;24.80
77077;BME280;66003;52.286;104.306;2023-05-07T11:27:30;96781.84;;;21.82;25.27
77077;BME280;66003;52.286;104.306;2023-05-07T11:29:56;96832.88;;;22.10;24.97
77077;BME280;66003;52.286;104.306;2023-05-07T11:32:22;96871.09;;;22.62;24.29
77077;BME280;66003;52.286;104.306;2023-05-07T11:34:55;96851.84;;;22.18;24.91
77077;BME280;66003;52.286;104.306;2023-05-07T11:37:22;96857.63;;;22.17;24.78
77077;BME280;66003;52.286;104.306;2023-05-07T11:39:49;96860.69;;;22.03;24.72
77077;BME280;66003;52.286;104.306;2023-05-07T11:42:30;96857.16;;;22.15;24.82
77077;BME280;66003;52.286;104.306;2023-05-07T11:44:57;96858.97;;;21.98;24.88
77077;BME280;66003;52.286;104.306;2023-05-07T11:47:24;96864.75;;;22.09;25.14
77077;BME280;66003;52.286;104.306;2023-05-07T11:49:54;96874.28;;;22.03;24.79
77077;BME280;66003;52.286;104.306;2023-05-07T11:52:22;96846.59;;;21.89;24.90
77077;BME280;66003;52.286;104.306;2023-05-07T11:54:52;96880.03;;;21.89;24.77
77077;BME280;66003;52.286;104.306;2023-05-07T11:57:20;96881.94;;;21.77;24.67
77077;BME280;66003;52.286;104.306;2023-05-07T11:59:47;96878.28;;;21.73;24.70
77077;BME280;66003;52.286;104.306;2023-05-07T12:02:14;96865.69;;;21.56;24.76
77077;BME280;66003;52.286;104.306;2023-05-07T12:04:41;96874.78;;;21.72;24.52
77077;BME280;66003;52.286;104.306;2023-05-07T12:07:16;96881.38;;;21.71;24.42
77077;BME280;66003;52.286;104.306;2023-05-07T12:09:45;96873.94;;;21.47;24.42
77077;BME280;66003;52.286;104.306;2023-05-07T12:12:13;96860.94;;;21.20;24.80
77077;BME280;66003;52.286;104.306;2023-05-07T12:14:44;96863.78;;;21.23;24.37
77077;BME280;66003;52.286;104.306;2023-05-07T12:17:12;96866.72;;;21.18;24.47
77077;BME280;66003;52.286;104.306;2023-05-07T12:19:41;96864.72;;;21.07;24.41
77077;BME280;66003;52.286;104.306;2023-05-07T12:22:08;96890.50;;;21.21;24.75
77077;BME280;66003;52.286;104.306;2023-05-07T12:24:49;96893.69;;;21.23;24.92
77077;BME280;66003;52.286;104.306;2023-05-07T12:27:16;96860.75;;;20.83;24.94
77077;BME280;66003;52.286;104.306;2023-05-07T12:30:01;96895.91;;;21.01;24.67
77077;BME280;66003;52.286;104.306;2023-05-07T12:32:31;96900.41;;;20.55;24.92
77077;BME280;66003;52.286;104.306;2023-05-07T12:35:02;96881.88;;;20.28;24.76
77077;BME280;66003;52.286;104.306;2023-05-07T12:37:30;96907.63;;;20.51;24.62
77077;BME280;66003;52.286;104.306;2023-05-07T12:40:10;96910.06;;;20.44;24.60
77077;BME280;66003;52.286;104.306;2023-05-07T12:42:37;96899.22;;;20.06;24.35
77077;BME280;66003;52.286;104.306;2023-05-07T12:45:13;96914.34;;;20.15;24.31
77077;BME280;66003;52.286;104.306;2023-05-07T12:47:45;96923.91;;;20.13;24.00
77077;BME280;66003;52.286;104.306;2023-05-07T12:50:13;96891.47;;;19.87;24.14